sensor_id;sensor_type;location;lat;lon;timestamp;P1;durP1;ratioP1;P2;durP2;ratioP2
15528;SDS011;7866;52.280;9.500;2024-03-08T00:03:41;13.97;;;12.23;;
15528;SDS011;7866;52.280;9.500;2024-03-08T00:08:43;16.10;;;12.80;;
15528;SDS011;7866;52.280;9.500;2024-03-08T00:13:45;14.67;;;12.97;;
15528;SDS011;7866;52.280;9.500;2024-03-08T00:18:48;14.97;;;12.97;;
15528;SDS011;7866;52.280;9.500;2024-03-08T00:23:49;16.67;;;12.70;;
15528;SDS011;7866;52.280;9.500;2024-03-08T00:28:51;16.70;;;13.33;;
15528;SDS011;7866;52.280;9.500;2024-03-08T00:33:55;14.97;;;12.27;;
15528;SDS011;7866;52.280;9.500;2024-03-08T00:38:57;15.33;;;12.33;;
15528;SDS011;7866;52.280;9.500;2024-03-08T00:44:00;15.97;;;12.83;;
15528;SDS011;7866;52.280;9.500;2024-03-08T00:49:04;17.83;;;13.40;;
15528;SDS011;7866;52.280;9.500;2024-03-08T00:54:06;14.43;;;12.17;;
15528;SDS011;7866;52.280;9.500;2024-03-08T00:59:08;15.37;;;12.70;;
15528;SDS011;7866;52.280;9.500;2024-03-08T01:04:11;16.63;;;13.77;;
15528;SDS011;7866;52.280;9.500;2024-03-08T01:09:13;18.00;;;13.10;;
15528;SDS011;7866;52.280;9.500;2024-03-08T01:14:17;15.20;;;13.30;;
15528;SDS011;7866;52.280;9.500;2024-03-08T01:19:20;17.17;;;13.63;;
15528;SDS011;7866;52.280;9.500;2024-03-08T01:24:22;17.63;;;13.87;;
15528;SDS011;7866;52.280;9.500;2024-03-08T01:29:23;17.37;;;14.43;;
15528;SDS011;7866;52.280;9.500;2024-03-08T01:34:26;16.90;;;13.10;;
15528;SDS011;7866;52.280;9.500;2024-03-08T01:39:28;19.27;;;13.77;;
15528;SDS011;7866;52.280;9.500;2024-03-08T01:44:30;14.43;;;12.93;;
15528;SDS011;7866;52.280;9.500;2024-03-08T01:49:33;16.77;;;13.33;;
15528;SDS011;7866;52.280;9.500;2024-03-08T01:54:35;15.00;;;13.40;;
15528;SDS011;7866;52.280;9.500;2024-03-08T01:59:37;16.33;;;13.30;;
15528;SDS011;7866;52.280;9.500;2024-03-08T02:04:40;16.33;;;13.50;;
15528;SDS011;7866;52.280;9.500;2024-03-08T02:09:43;18.37;;;14.23;;
15528;SDS011;7866;52.280;9.500;2024-03-08T02:14:44;18.13;;;13.13;;
15528;SDS011;7866;52.280;9.500;2024-03-08T02:19:48;18.13;;;13.50;;
15528;SDS011;7866;52.280;9.500;2024-03-08T02:24:51;18.20;;;13.67;;
15528;SDS011;7866;52.280;9.500;2024-03-08T02:29:53;19.10;;;15.17;;
15528;SDS011;7866;52.280;9.500;2024-03-08T02:34:56;17.07;;;14.17;;
15528;SDS011;7866;52.280;9.500;2024-03-08T02:40:01;18.57;;;15.10;;
15528;SDS011;7866;52.280;9.500;2024-03-08T02:45:03;18.20;;;14.50;;
15528;SDS011;7866;52.280;9.500;2024-03-08T02:50:06;16.70;;;13.90;;
15528;SDS011;7866;52.280;9.500;2024-03-08T02:55:10;18.13;;;13.97;;
15528;SDS011;7866;52.280;9.500;2024-03-08T03:00:16;20.47;;;15.03;;
15528;SDS011;7866;52.280;9.500;2024-03-08T03:05:19;19.90;;;15.47;;
15528;SDS011;7866;52.280;9.500;2024-03-08T03:10:22;18.23;;;14.93;;
15528;SDS011;7866;52.280;9.500;2024-03-08T03:15:24;19.60;;;15.33;;
15528;SDS011;7866;52.280;9.500;2024-03-08T03:20:25;18.83;;;15.70;;
15528;SDS011;7866;52.280;9.500;2024-03-08T03:25:33;18.73;;;13.90;;
15528;SDS011;7866;52.280;9.500;2024-03-08T03:30:35;19.30;;;15.40;;
15528;SDS011;7866;52.280;9.500;2024-03-08T03:35:37;19.53;;;15.47;;
15528;SDS011;7866;52.280;9.500;2024-03-08T03:40:40;19.87;;;15.77;;
15528;SDS011;7866;52.280;9.500;2024-03-08T03:45:42;20.17;;;15.50;;
15528;SDS011;7866;52.280;9.500;2024-03-08T03:50:44;18.73;;;15.37;;
15528;SDS011;7866;52.280;9.500;2024-03-08T03:55:46;20.50;;;16.13;;
15528;SDS011;7866;52.280;9.500;2024-03-08T04:00:48;20.77;;;15.20;;
15528;SDS011;7866;52.280;9.500;2024-03-08T04:05:50;20.37;;;15.83;;
15528;SDS011;7866;52.280;9.500;2024-03-08T04:10:53;19.97;;;15.77;;
15528;SDS011;7866;52.280;9.500;2024-03-08T04:15:55;21.97;;;16.43;;
15528;SDS011;7866;52.280;9.500;2024-03-08T04:20:56;19.53;;;15.67;;
15528;SDS011;7866;52.280;9.500;2024-03-08T04:25:59;20.90;;;16.57;;
15528;SDS011;7866;52.280;9.500;2024-03-08T04:31:01;19.90;;;16.70;;
15528;SDS011;7866;52.280;9.500;2024-03-08T04:36:03;20.63;;;16.67;;
15528;SDS011;7866;52.280;9.500;2024-03-08T04:41:06;20.30;;;16.00;;
15528;SDS011;7866;52.280;9.500;2024-03-08T04:46:08;23.50;;;16.93;;
15528;SDS011;7866;52.280;9.500;2024-03-08T04:51:10;23.47;;;17.77;;
15528;SDS011;7866;52.280;9.500;2024-03-08T04:56:13;22.80;;;17.50;;
15528;SDS011;7866;52.280;9.500;2024-03-08T05:01:14;21.73;;;17.67;;
15528;SDS011;7866;52.280;9.500;2024-03-08T05:06:16;21.40;;;17.43;;
15528;SDS011;7866;52.280;9.500;2024-03-08T05:11:22;18.87;;;15.83;;
15528;SDS011;7866;52.280;9.500;2024-03-08T05:16:23;24.37;;;16.90;;
15528;SDS011;7866;52.280;9.500;2024-03-08T05:21:25;21.83;;;17.33;;
15528;SDS011;7866;52.280;9.500;2024-03-08T05:26:28;23.27;;;18.43;;
15528;SDS011;7866;52.280;9.500;2024-03-08T05:31:31;20.37;;;16.90;;
15528;SDS011;7866;52.280;9.500;2024-03-08T05:36:39;24.00;;;19.27;;
15528;SDS011;7866;52.280;9.500;2024-03-08T05:41:43;20.07;;;16.47;;
15528;SDS011;7866;52.280;9.500;2024-03-08T05:46:45;21.07;;;17.30;;
15528;SDS011;7866;52.280;9.500;2024-03-08T05:51:47;22.80;;;19.03;;
15528;SDS011;7866;52.280;9.500;2024-03-08T05:56:50;26.03;;;19.40;;
15528;SDS011;7866;52.280;9.500;2024-03-08T06:01:52;24.60;;;19.27;;
15528;SDS011;7866;52.280;9.500;2024-03-08T06:06:54;24.30;;;19.07;;
15528;SDS011;7866;52.280;9.500;2024-03-08T06:11:58;25.07;;;18.57;;
15528;SDS011;7866;52.280;9.500;2024-03-08T06:17:01;21.00;;;17.90;;
15528;SDS011;7866;52.280;9.500;2024-03-08T06:22:03;24.80;;;18.83;;
15528;SDS011;7866;52.280;9.500;2024-03-08T06:27:07;24.37;;;19.23;;
15528;SDS011;7866;52.280;9.500;2024-03-08T06:32:09;26.90;;;20.27;;
15528;SDS011;7866;52.280;9.500;2024-03-08T06:37:11;22.43;;;18.60;;
15528;SDS011;7866;52.280;9.500;2024-03-08T06:42:16;22.03;;;17.93;;
15528;SDS011;7866;52.280;9.500;2024-03-08T06:47:17;25.83;;;20.03;;
15528;SDS011;7866;52.280;9.500;2024-03-08T06:52:19;23.90;;;17.93;;
15528;SDS011;7866;52.280;9.500;2024-03-08T06:57:23;25.77;;;19.90;;
15528;SDS011;7866;52.280;9.500;2024-03-08T07:02:25;21.40;;;17.73;;
15528;SDS011;7866;52.280;9.500;2024-03-08T07:07:26;27.57;;;21.13;;
15528;SDS011;7866;52.280;9.500;2024-03-08T07:12:31;24.47;;;19.80;;
15528;SDS011;7866;52.280;9.500;2024-03-08T07:17:33;26.07;;;21.40;;
15528;SDS011;7866;52.280;9.500;2024-03-08T07:22:35;25.03;;;20.37;;
15528;SDS011;7866;52.280;9.500;2024-03-08T07:27:38;26.10;;;21.07;;
15528;SDS011;7866;52.280;9.500;2024-03-08T07:32:40;25.97;;;20.70;;
15528;SDS011;7866;52.280;9.500;2024-03-08T07:37:41;29.17;;;21.63;;
15528;SDS011;7866;52.280;9.500;2024-03-08T07:42:44;27.30;;;21.90;;
15528;SDS011;7866;52.280;9.500;2024-03-08T07:47:46;29.43;;;22.30;;
15528;SDS011;7866;52.280;9.500;2024-03-08T07:52:48;27.27;;;21.70;;
15528;SDS011;7866;52.280;9.500;2024-03-08T07:57:51;27.37;;;22.23;;
15528;SDS011;7866;52.280;9.500;2024-03-08T08:02:52;26.03;;;22.40;;
15528;SDS011;7866;52.280;9.500;2024-03-08T08:07:54;28.93;;;23.07;;
15528;SDS011;7866;52.280;9.500;2024-03-08T08:12:57;27.23;;;22.73;;
15528;SDS011;7866;52.280;9.500;2024-03-08T08:17:59;28.47;;;23.30;;
15528;SDS011;7866;52.280;9.500;2024-03-08T08:23:01;30.37;;;23.23;;
15528;SDS011;7866;52.280;9.500;2024-03-08T08:28:04;30.67;;;23.87;;
15528;SDS011;7866;52.280;9.500;2024-03-08T08:33:06;29.63;;;21.87;;
15528;SDS011;7866;52.280;9.500;2024-03-08T08:38:09;30.23;;;23.10;;
15528;SDS011;7866;52.280;9.500;2024-03-08T08:43:13;29.93;;;23.27;;
15528;SDS011;7866;52.280;9.500;2024-03-08T08:48:15;29.07;;;23.90;;
15528;SDS011;7866;52.280;9.500;2024-03-08T08:53:16;31.17;;;23.57;;
15528;SDS011;7866;52.280;9.500;2024-03-08T08:58:19;27.80;;;22.63;;
15528;SDS011;7866;52.280;9.500;2024-03-08T09:03:22;31.27;;;24.27;;
15528;SDS011;7866;52.280;9.500;2024-03-08T09:08:25;31.70;;;23.90;;
15528;SDS011;7866;52.280;9.500;2024-03-08T09:13:28;28.43;;;23.47;;
15528;SDS011;7866;52.280;9.500;2024-03-08T09:18:30;28.30;;;23.60;;
15528;SDS011;7866;52.280;9.500;2024-03-08T09:23:32;28.30;;;22.80;;
15528;SDS011;7866;52.280;9.500;2024-03-08T09:28:35;29.23;;;24.53;;
15528;SDS011;7866;52.280;9.500;2024-03-08T09:33:36;31.67;;;23.43;;
15528;SDS011;7866;52.280;9.500;2024-03-08T09:38:39;30.53;;;23.67;;
15528;SDS011;7866;52.280;9.500;2024-03-08T09:43:42;31.67;;;23.53;;
15528;SDS011;7866;52.280;9.500;2024-03-08T09:48:44;30.93;;;23.57;;
15528;SDS011;7866;52.280;9.500;2024-03-08T09:53:46;31.30;;;24.50;;
15528;SDS011;7866;52.280;9.500;2024-03-08T09:58:49;28.50;;;23.23;;
15528;SDS011;7866;52.280;9.500;2024-03-08T10:04:20;27.77;;;22.57;;
15528;SDS011;7866;52.280;9.500;2024-03-08T10:09:21;30.33;;;23.53;;
15528;SDS011;7866;52.280;9.500;2024-03-08T10:14:26;29.63;;;23.60;;
15528;SDS011;7866;52.280;9.500;2024-03-08T10:19:28;30.70;;;23.60;;
15528;SDS011;7866;52.280;9.500;2024-03-08T10:24:30;28.53;;;23.07;;
15528;SDS011;7866;52.280;9.500;2024-03-08T10:29:35;28.00;;;22.83;;
15528;SDS011;7866;52.280;9.500;2024-03-08T10:34:38;28.83;;;22.83;;
15528;SDS011;7866;52.280;9.500;2024-03-08T10:39:41;28.67;;;23.03;;
15528;SDS011;7866;52.280;9.500;2024-03-08T10:44:58;27.07;;;22.80;;
15528;SDS011;7866;52.280;9.500;2024-03-08T10:50:08;26.73;;;21.17;;
15528;SDS011;7866;52.280;9.500;2024-03-08T10:55:13;24.87;;;21.43;;
15528;SDS011;7866;52.280;9.500;2024-03-08T11:00:18;26.63;;;21.50;;
15528;SDS011;7866;52.280;9.500;2024-03-08T11:05:36;26.50;;;21.27;;
15528;SDS011;7866;52.280;9.500;2024-03-08T11:10:46;25.87;;;20.80;;
15528;SDS011;7866;52.280;9.500;2024-03-08T11:15:52;24.37;;;20.50;;
15528;SDS011;7866;52.280;9.500;2024-03-08T11:20:55;25.30;;;20.90;;
15528;SDS011;7866;52.280;9.500;2024-03-08T11:25:57;28.70;;;21.23;;
15528;SDS011;7866;52.280;9.500;2024-03-08T11:36:28;29.57;;;21.60;;
15528;SDS011;7866;52.280;9.500;2024-03-08T11:41:32;28.97;;;22.50;;
15528;SDS011;7866;52.280;9.500;2024-03-08T11:46:35;27.20;;;21.33;;
15528;SDS011;7866;52.280;9.500;2024-03-08T11:51:36;28.47;;;20.10;;
15528;SDS011;7866;52.280;9.500;2024-03-08T11:56:38;25.03;;;20.67;;
15528;SDS011;7866;52.280;9.500;2024-03-08T12:01:43;27.57;;;21.87;;
15528;SDS011;7866;52.280;9.500;2024-03-08T12:06:45;23.70;;;19.60;;
15528;SDS011;7866;52.280;9.500;2024-03-08T12:11:48;22.63;;;19.37;;
15528;SDS011;7866;52.280;9.500;2024-03-08T12:16:52;23.33;;;20.17;;
15528;SDS011;7866;52.280;9.500;2024-03-08T12:21:54;26.27;;;20.57;;
15528;SDS011;7866;52.280;9.500;2024-03-08T12:26:56;24.47;;;20.83;;
15528;SDS011;7866;52.280;9.500;2024-03-08T12:31:59;22.93;;;19.43;;
15528;SDS011;7866;52.280;9.500;2024-03-08T12:37:02;23.57;;;20.07;;
15528;SDS011;7866;52.280;9.500;2024-03-08T12:42:07;24.13;;;19.47;;
15528;SDS011;7866;52.280;9.500;2024-03-08T12:47:10;23.53;;;19.40;;
15528;SDS011;7866;52.280;9.500;2024-03-08T12:52:11;23.97;;;18.77;;
15528;SDS011;7866;52.280;9.500;2024-03-08T12:57:13;25.03;;;19.83;;
15528;SDS011;7866;52.280;9.500;2024-03-08T13:02:16;27.37;;;19.97;;
15528;SDS011;7866;52.280;9.500;2024-03-08T13:07:18;23.07;;;18.73;;
15528;SDS011;7866;52.280;9.500;2024-03-08T13:12:19;24.67;;;20.53;;
15528;SDS011;7866;52.280;9.500;2024-03-08T13:17:22;23.17;;;19.73;;
15528;SDS011;7866;52.280;9.500;2024-03-08T13:22:24;23.77;;;19.40;;
15528;SDS011;7866;52.280;9.500;2024-03-08T13:27:28;23.33;;;19.03;;
15528;SDS011;7866;52.280;9.500;2024-03-08T13:32:31;21.93;;;19.33;;
15528;SDS011;7866;52.280;9.500;2024-03-08T13:37:33;23.47;;;20.03;;
15528;SDS011;7866;52.280;9.500;2024-03-08T13:42:35;24.17;;;19.30;;
15528;SDS011;7866;52.280;9.500;2024-03-08T13:47:39;23.03;;;18.10;;
15528;SDS011;7866;52.280;9.500;2024-03-08T13:52:41;23.90;;;19.30;;
15528;SDS011;7866;52.280;9.500;2024-03-08T13:57:44;22.70;;;19.80;;
15528;SDS011;7866;52.280;9.500;2024-03-08T14:02:47;23.43;;;19.57;;
15528;SDS011;7866;52.280;9.500;2024-03-08T14:07:49;24.07;;;19.87;;
15528;SDS011;7866;52.280;9.500;2024-03-08T14:12:51;23.77;;;18.07;;
15528;SDS011;7866;52.280;9.500;2024-03-08T14:17:54;22.27;;;19.20;;
15528;SDS011;7866;52.280;9.500;2024-03-08T14:22:57;24.20;;;20.07;;
15528;SDS011;7866;52.280;9.500;2024-03-08T14:27:59;21.50;;;19.20;;
15528;SDS011;7866;52.280;9.500;2024-03-08T14:33:05;20.70;;;18.27;;
15528;SDS011;7866;52.280;9.500;2024-03-08T14:38:09;22.30;;;18.60;;
15528;SDS011;7866;52.280;9.500;2024-03-08T14:43:11;24.43;;;20.03;;
15528;SDS011;7866;52.280;9.500;2024-03-08T14:48:14;23.00;;;20.20;;
15528;SDS011;7866;52.280;9.500;2024-03-08T14:53:16;23.57;;;19.50;;
15528;SDS011;7866;52.280;9.500;2024-03-08T14:58:18;24.37;;;19.57;;
15528;SDS011;7866;52.280;9.500;2024-03-08T15:03:22;24.90;;;21.07;;
15528;SDS011;7866;52.280;9.500;2024-03-08T15:08:26;27.13;;;21.57;;
15528;SDS011;7866;52.280;9.500;2024-03-08T15:13:28;24.87;;;20.83;;
15528;SDS011;7866;52.280;9.500;2024-03-08T15:18:40;23.30;;;20.63;;
15528;SDS011;7866;52.280;9.500;2024-03-08T15:23:41;25.20;;;20.80;;
15528;SDS011;7866;52.280;9.500;2024-03-08T15:28:47;22.77;;;20.27;;
15528;SDS011;7866;52.280;9.500;2024-03-08T15:33:53;22.90;;;20.40;;
15528;SDS011;7866;52.280;9.500;2024-03-08T15:39:00;22.43;;;19.60;;
15528;SDS011;7866;52.280;9.500;2024-03-08T15:44:02;21.87;;;19.47;;
15528;SDS011;7866;52.280;9.500;2024-03-08T15:49:05;22.80;;;19.90;;
15528;SDS011;7866;52.280;9.500;2024-03-08T15:54:08;21.90;;;19.50;;
15528;SDS011;7866;52.280;9.500;2024-03-08T15:59:10;25.33;;;20.00;;
15528;SDS011;7866;52.280;9.500;2024-03-08T16:04:13;24.53;;;19.50;;
15528;SDS011;7866;52.280;9.500;2024-03-08T16:09:15;24.50;;;19.03;;
15528;SDS011;7866;52.280;9.500;2024-03-08T16:14:17;22.10;;;19.53;;
15528;SDS011;7866;52.280;9.500;2024-03-08T16:19:21;23.17;;;19.70;;
15528;SDS011;7866;52.280;9.500;2024-03-08T16:24:23;23.80;;;19.73;;
15528;SDS011;7866;52.280;9.500;2024-03-08T16:29:25;21.13;;;17.93;;
15528;SDS011;7866;52.280;9.500;2024-03-08T16:34:28;22.07;;;18.43;;
15528;SDS011;7866;52.280;9.500;2024-03-08T16:39:31;23.07;;;18.57;;
15528;SDS011;7866;52.280;9.500;2024-03-08T16:44:33;20.90;;;18.67;;
15528;SDS011;7866;52.280;9.500;2024-03-08T16:49:36;22.80;;;18.93;;
15528;SDS011;7866;52.280;9.500;2024-03-08T16:54:37;21.90;;;18.87;;
15528;SDS011;7866;52.280;9.500;2024-03-08T16:59:39;23.93;;;19.67;;
15528;SDS011;7866;52.280;9.500;2024-03-08T17:04:42;23.37;;;18.97;;
15528;SDS011;7866;52.280;9.500;2024-03-08T17:09:44;22.47;;;19.43;;
15528;SDS011;7866;52.280;9.500;2024-03-08T17:14:46;20.87;;;18.43;;
15528;SDS011;7866;52.280;9.500;2024-03-08T17:19:49;25.57;;;19.93;;
15528;SDS011;7866;52.280;9.500;2024-03-08T17:24:50;21.50;;;19.03;;
15528;SDS011;7866;52.280;9.500;2024-03-08T17:29:55;24.23;;;18.67;;
15528;SDS011;7866;52.280;9.500;2024-03-08T17:34:58;22.47;;;19.23;;
15528;SDS011;7866;52.280;9.500;2024-03-08T17:40:00;23.97;;;19.87;;
15528;SDS011;7866;52.280;9.500;2024-03-08T17:45:05;24.63;;;19.40;;
15528;SDS011;7866;52.280;9.500;2024-03-08T17:50:14;24.23;;;19.83;;
15528;SDS011;7866;52.280;9.500;2024-03-08T17:55:18;25.43;;;20.63;;
15528;SDS011;7866;52.280;9.500;2024-03-08T18:00:20;24.83;;;20.17;;
15528;SDS011;7866;52.280;9.500;2024-03-08T18:05:27;26.63;;;20.80;;
15528;SDS011;7866;52.280;9.500;2024-03-08T18:10:32;23.87;;;20.20;;
15528;SDS011;7866;52.280;9.500;2024-03-08T18:15:35;26.43;;;21.00;;
15528;SDS011;7866;52.280;9.500;2024-03-08T18:20:38;22.80;;;20.37;;
15528;SDS011;7866;52.280;9.500;2024-03-08T18:25:46;29.07;;;21.87;;
15528;SDS011;7866;52.280;9.500;2024-03-08T18:30:48;25.87;;;20.47;;
15528;SDS011;7866;52.280;9.500;2024-03-08T18:35:52;26.50;;;20.83;;
15528;SDS011;7866;52.280;9.500;2024-03-08T18:40:54;25.13;;;20.67;;
15528;SDS011;7866;52.280;9.500;2024-03-08T18:45:56;23.63;;;19.60;;
15528;SDS011;7866;52.280;9.500;2024-03-08T18:51:00;26.37;;;21.63;;
15528;SDS011;7866;52.280;9.500;2024-03-08T18:56:01;25.40;;;21.43;;
15528;SDS011;7866;52.280;9.500;2024-03-08T19:01:03;22.93;;;19.23;;
15528;SDS011;7866;52.280;9.500;2024-03-08T19:06:07;25.23;;;19.53;;
15528;SDS011;7866;52.280;9.500;2024-03-08T19:11:08;25.50;;;19.70;;
15528;SDS011;7866;52.280;9.500;2024-03-08T19:16:10;24.47;;;19.17;;
15528;SDS011;7866;52.280;9.500;2024-03-08T19:21:17;23.73;;;18.77;;
15528;SDS011;7866;52.280;9.500;2024-03-08T19:26:21;21.30;;;18.17;;
15528;SDS011;7866;52.280;9.500;2024-03-08T19:31:22;21.13;;;17.17;;
15528;SDS011;7866;52.280;9.500;2024-03-08T19:36:25;22.83;;;17.07;;
15528;SDS011;7866;52.280;9.500;2024-03-08T19:41:27;21.17;;;16.73;;
15528;SDS011;7866;52.280;9.500;2024-03-08T19:46:31;21.37;;;16.30;;
15528;SDS011;7866;52.280;9.500;2024-03-08T19:51:41;22.87;;;16.00;;
15528;SDS011;7866;52.280;9.500;2024-03-08T19:56:44;18.93;;;16.10;;
15528;SDS011;7866;52.280;9.500;2024-03-08T20:01:46;22.13;;;15.87;;
15528;SDS011;7866;52.280;9.500;2024-03-08T20:06:49;17.10;;;14.83;;
15528;SDS011;7866;52.280;9.500;2024-03-08T20:11:51;19.07;;;14.03;;
15528;SDS011;7866;52.280;9.500;2024-03-08T20:16:53;18.20;;;14.43;;
15528;SDS011;7866;52.280;9.500;2024-03-08T20:21:57;17.03;;;14.03;;
15528;SDS011;7866;52.280;9.500;2024-03-08T20:26:59;17.33;;;14.40;;
15528;SDS011;7866;52.280;9.500;2024-03-08T20:32:02;17.63;;;14.73;;
15528;SDS011;7866;52.280;9.500;2024-03-08T20:37:05;20.43;;;14.47;;
15528;SDS011;7866;52.280;9.500;2024-03-08T20:42:09;16.77;;;12.73;;
15528;SDS011;7866;52.280;9.500;2024-03-08T20:47:11;15.80;;;13.80;;
15528;SDS011;7866;52.280;9.500;2024-03-08T20:52:14;17.93;;;14.00;;
15528;SDS011;7866;52.280;9.500;2024-03-08T20:57:15;19.30;;;14.20;;
15528;SDS011;7866;52.280;9.500;2024-03-08T21:02:17;16.57;;;12.83;;
15528;SDS011;7866;52.280;9.500;2024-03-08T21:07:20;18.03;;;13.43;;
15528;SDS011;7866;52.280;9.500;2024-03-08T21:12:21;17.47;;;13.00;;
15528;SDS011;7866;52.280;9.500;2024-03-08T21:17:23;14.00;;;12.47;;
15528;SDS011;7866;52.280;9.500;2024-03-08T21:22:26;13.97;;;11.77;;
15528;SDS011;7866;52.280;9.500;2024-03-08T21:27:28;15.47;;;12.73;;
15528;SDS011;7866;52.280;9.500;2024-03-08T21:32:29;16.47;;;13.17;;
15528;SDS011;7866;52.280;9.500;2024-03-08T21:37:32;16.30;;;13.70;;
15528;SDS011;7866;52.280;9.500;2024-03-08T21:42:34;15.10;;;12.93;;
15528;SDS011;7866;52.280;9.500;2024-03-08T21:47:35;16.70;;;13.53;;
15528;SDS011;7866;52.280;9.500;2024-03-08T21:52:40;19.27;;;14.37;;
15528;SDS011;7866;52.280;9.500;2024-03-08T21:57:41;18.40;;;13.87;;
15528;SDS011;7866;52.280;9.500;2024-03-08T22:02:44;17.13;;;13.77;;
15528;SDS011;7866;52.280;9.500;2024-03-08T22:07:49;15.87;;;12.90;;
15528;SDS011;7866;52.280;9.500;2024-03-08T22:12:51;17.30;;;13.67;;
15528;SDS011;7866;52.280;9.500;2024-03-08T22:17:54;17.20;;;13.50;;
15528;SDS011;7866;52.280;9.500;2024-03-08T22:22:58;14.90;;;12.60;;
15528;SDS011;7866;52.280;9.500;2024-03-08T22:28:01;16.67;;;13.57;;
15528;SDS011;7866;52.280;9.500;2024-03-08T22:33:04;17.50;;;14.17;;
15528;SDS011;7866;52.280;9.500;2024-03-08T22:38:10;17.53;;;13.53;;
15528;SDS011;7866;52.280;9.500;2024-03-08T22:43:11;16.93;;;13.53;;
15528;SDS011;7866;52.280;9.500;2024-03-08T22:48:13;17.63;;;13.23;;
15528;SDS011;7866;52.280;9.500;2024-03-08T22:53:16;18.00;;;14.50;;
15528;SDS011;7866;52.280;9.500;2024-03-08T22:58:18;18.43;;;14.67;;
15528;SDS011;7866;52.280;9.500;2024-03-08T23:03:19;17.63;;;14.27;;
15528;SDS011;7866;52.280;9.500;2024-03-08T23:08:24;20.10;;;15.23;;
15528;SDS011;7866;52.280;9.500;2024-03-08T23:13:29;18.80;;;14.53;;
15528;SDS011;7866;52.280;9.500;2024-03-08T23:18:34;17.90;;;14.23;;
15528;SDS011;7866;52.280;9.500;2024-03-08T23:23:37;20.77;;;15.13;;
15528;SDS011;7866;52.280;9.500;2024-03-08T23:28:39;20.70;;;15.97;;
15528;SDS011;7866;52.280;9.500;2024-03-08T23:33:41;17.70;;;15.10;;
15528;SDS011;7866;52.280;9.500;2024-03-08T23:38:47;21.30;;;16.27;;
15528;SDS011;7866;52.280;9.500;2024-03-08T23:43:50;16.83;;;14.23;;
15528;SDS011;7866;52.280;9.500;2024-03-08T23:48:53;19.83;;;15.73;;
15528;SDS011;7866;52.280;9.500;2024-03-08T23:53:56;19.77;;;15.13;;
15528;SDS011;7866;52.280;9.500;2024-03-08T23:58:57;17.63;;;14.17;;
